Time;durP1;ratioP1;P1;durP2;ratioP2;P2;SDS_P1;SDS_P2;PMS_P1;PMS_P2;Temp;Humidity;BMP_temperature;BMP_pressure;BME280_temperature;BME280_humidity;BME280_pressure;Samples;Min_cycle;Max_cycle;Signal;HPM_P1;HPM_P2
2023/08/27 00:02:03;;;;;;;7.87;5.40;;;17.40;82.80;;;;;;5076937;28;20180;-89
2023/08/27 00:04:29;;;;;;;6.50;4.87;;;17.40;81.90;;;;;;5075106;28;20181;-89
2023/08/27 00:06:55;;;;;;;8.63;5.33;;;17.30;83.30;;;;;;5076518;28;20254;-88
2023/08/27 00:09:21;;;;;;;9.20;5.57;;;17.20;86.90;;;;;;5070776;28;20197;-89
2023/08/27 00:11:47;;;;;;;8.60;4.80;;;17.00;90.90;;;;;;5059593;28;20267;-89
2023/08/27 00:14:15;;;;;;;8.07;5.00;;;17.00;94.00;;;;;;5057045;28;20209;-89
2023/08/27 00:16:46;;;;;;;7.13;4.70;;;17.00;95.30;;;;;;5053901;28;20264;-89
2023/08/27 00:19:20;;;;;;;7.07;4.43;;;17.00;96.00;;;;;;5054035;28;20173;-89
2023/08/27 00:21:45;;;;;;;9.00;4.60;;;17.00;96.70;;;;;;5054212;28;20168;-90
2023/08/27 00:24:11;;;;;;;8.03;4.97;;;17.00;96.70;;;;;;5055322;28;20207;-91
2023/08/27 00:26:36;;;;;;;9.47;4.90;;;16.90;97.80;;;;;;5058256;28;20173;-89
2023/08/27 00:29:03;;;;;;;6.47;4.77;;;16.80;99.10;;;;;;5059406;28;20545;-90
2023/08/27 00:31:28;;;;;;;7.73;5.30;;;16.80;99.90;;;;;;5060938;28;20177;-91
2023/08/27 00:33:54;;;;;;;8.63;5.60;;;16.90;99.90;;;;;;5063493;28;20211;-90
2023/08/27 00:36:20;;;;;;;10.27;5.13;;;17.00;99.80;;;;;;5064716;28;20193;-91
2023/08/27 00:38:45;;;;;;;7.63;5.03;;;17.00;99.50;;;;;;5062738;28;20178;-91
2023/08/27 00:41:11;;;;;;;9.07;5.00;;;17.00;99.90;;;;;;5066324;28;20169;-89
2023/08/27 00:43:37;;;;;;;8.17;5.50;;;16.90;99.50;;;;;;5060949;28;20180;-88
2023/08/27 00:46:04;;;;;;;7.43;5.30;;;16.90;98.90;;;;;;5055730;28;20182;-88
2023/08/27 00:48:30;;;;;;;9.17;5.23;;;17.00;95.30;;;;;;5054765;28;20180;-90
2023/08/27 00:50:58;;;;;;;9.07;5.40;;;16.90;95.00;;;;;;5056361;28;20176;-89
2023/08/27 00:53:23;;;;;;;11.17;6.43;;;17.00;94.90;;;;;;5054958;28;20182;-91
2023/08/27 00:55:51;;;;;;;11.13;6.17;;;16.90;95.50;;;;;;5055087;28;20311;-89
2023/08/27 00:58:17;;;;;;;10.17;5.77;;;16.80;98.10;;;;;;5054959;28;20182;-90
2023/08/27 01:00:43;;;;;;;8.70;5.70;;;16.80;99.60;;;;;;5055676;28;20516;-89
2023/08/27 01:03:08;;;;;;;10.03;6.40;;;16.70;99.90;;;;;;5055920;28;20169;-91
2023/08/27 01:05:34;;;;;;;11.17;6.23;;;16.70;99.90;;;;;;5054422;28;20176;-91
2023/08/27 01:08:09;;;;;;;7.63;4.97;;;16.60;99.90;;;;;;5054346;28;20179;-91
2023/08/27 01:11:06;;;;;;;7.87;5.40;;;16.60;99.90;;;;;;5055606;28;20180;-91
2023/08/27 01:13:44;;;;;;;7.30;4.93;;;16.70;99.90;;;;;;5053798;28;20605;-91
2023/08/27 01:16:11;;;;;;;8.37;4.77;;;16.70;99.90;;;;;;5054950;28;20228;-89
2023/08/27 01:18:38;;;;;;;6.67;4.57;;;16.50;99.90;;;;;;5054649;28;20528;-91
2023/08/27 01:21:23;;;;;;;8.70;5.23;;;16.50;99.90;;;;;;5054749;28;20176;-89
2023/08/27 01:23:50;;;;;;;7.37;4.50;;;16.70;99.90;;;;;;5052857;28;20214;-89
2023/08/27 01:26:36;;;;;;;7.17;4.17;;;16.70;99.90;;;;;;5053583;28;20191;-87
2023/08/27 01:29:24;;;;;;;9.53;4.03;;;16.80;99.90;;;;;;5053775;28;20173;-87
2023/08/27 01:32:20;;;;;;;9.33;4.27;;;16.90;99.90;;;;;;5068825;28;20267;-87
2023/08/27 01:34:48;;;;;;;5.73;3.50;;;17.00;98.10;;;;;;5053179;28;20228;-87
2023/08/27 01:37:14;;;;;;;6.17;3.63;;;16.90;96.90;;;;;;5053458;28;20294;-90
2023/08/27 01:39:43;;;;;;;6.23;3.50;;;16.90;98.00;;;;;;5054970;28;20211;-90
2023/08/27 01:42:11;;;;;;;7.17;3.50;;;16.90;98.80;;;;;;5055484;28;20506;-92
2023/08/27 01:44:37;;;;;;;5.97;3.70;;;16.90;99.60;;;;;;5054923;28;20279;-90
2023/08/27 01:47:04;;;;;;;5.50;3.40;;;17.00;99.90;;;;;;5057640;28;20811;-90
2023/08/27 01:49:31;;;;;;;5.63;3.83;;;17.10;99.90;;;;;;5055529;28;20224;-92
2023/08/27 01:51:56;;;;;;;6.17;3.63;;;17.10;99.10;;;;;;5063394;28;20177;-89
2023/08/27 01:54:22;;;;;;;7.07;3.57;;;17.10;98.30;;;;;;5057649;28;20201;-90
2023/08/27 01:56:48;;;;;;;4.80;3.50;;;17.20;97.80;;;;;;5057875;28;20183;-90
2023/08/27 01:59:13;;;;;;;6.90;3.57;;;17.20;97.10;;;;;;5057191;28;20171;-88
2023/08/27 02:01:39;;;;;;;4.70;2.87;;;17.00;96.70;;;;;;5056829;28;20211;-87
2023/08/27 02:04:05;;;;;;;5.53;3.43;;;16.90;97.10;;;;;;5057923;28;20165;-87
2023/08/27 02:06:31;;;;;;;6.70;3.30;;;16.90;97.50;;;;;;5056224;28;20165;-90
2023/08/27 02:08:56;;;;;;;5.60;3.10;;;16.90;97.30;;;;;;5056639;28;20176;-87
2023/08/27 02:11:22;;;;;;;4.63;2.60;;;16.80;97.30;;;;;;5056454;28;20266;-89
2023/08/27 02:13:48;;;;;;;5.17;2.70;;;16.70;96.50;;;;;;5057032;28;20170;-88
2023/08/27 02:16:14;;;;;;;5.87;3.10;;;16.70;96.60;;;;;;5057558;28;20225;-89
2023/08/27 02:18:39;;;;;;;5.80;2.77;;;16.60;96.80;;;;;;5057143;28;20168;-88
2023/08/27 02:21:07;;;;;;;5.43;2.80;;;16.50;97.50;;;;;;5072074;28;20186;-87
2023/08/27 02:23:33;;;;;;;5.40;2.83;;;16.50;98.60;;;;;;5077958;28;20196;-87
2023/08/27 02:25:58;;;;;;;5.50;2.80;;;16.50;98.90;;;;;;5075824;28;20186;-87
2023/08/27 02:28:24;;;;;;;4.67;2.80;;;16.60;98.10;;;;;;5107136;28;20252;-88
2023/08/27 02:30:51;;;;;;;6.33;2.87;;;16.60;97.70;;;;;;5106486;28;20179;-90
2023/08/27 02:33:18;;;;;;;4.93;2.87;;;16.70;96.70;;;;;;5058531;28;20301;-90
2023/08/27 02:35:47;;;;;;;5.80;2.80;;;16.70;96.90;;;;;;5056627;28;20200;-89
2023/08/27 02:38:14;;;;;;;5.27;2.90;;;16.60;97.50;;;;;;5056917;28;20330;-89
2023/08/27 02:40:40;;;;;;;5.47;3.00;;;16.70;97.70;;;;;;5056205;28;20592;-90
2023/08/27 02:43:07;;;;;;;5.83;3.20;;;16.70;98.40;;;;;;5056524;28;20168;-89
2023/08/27 02:45:33;;;;;;;6.03;3.47;;;16.80;98.90;;;;;;5060106;28;20165;-91
2023/08/27 02:47:58;;;;;;;5.10;2.80;;;16.70;99.00;;;;;;5078274;28;20192;-86
2023/08/27 02:50:24;;;;;;;6.10;2.93;;;16.60;99.90;;;;;;5075818;28;20178;-88
2023/08/27 02:52:50;;;;;;;4.67;2.90;;;16.40;99.90;;;;;;5066353;28;20293;-90
2023/08/27 02:55:15;;;;;;;5.63;2.97;;;16.40;99.90;;;;;;5062494;28;20703;-89
2023/08/27 02:57:41;;;;;;;5.30;3.77;;;16.40;99.90;;;;;;5057892;28;20185;-90
2023/08/27 03:00:12;;;;;;;6.57;2.97;;;16.60;99.90;;;;;;5057219;28;20175;-88
2023/08/27 03:02:41;;;;;;;6.23;3.53;;;16.70;99.90;;;;;;5057135;28;20196;-87
2023/08/27 03:05:11;;;;;;;5.57;3.03;;;16.50;99.90;;;;;;5067980;28;20192;-87
2023/08/27 03:07:36;;;;;;;5.07;3.47;;;16.40;99.90;;;;;;5063775;28;20182;-90
2023/08/27 03:10:02;;;;;;;5.53;3.00;;;16.40;99.90;;;;;;5056876;28;20207;-90
2023/08/27 03:12:28;;;;;;;5.57;3.27;;;16.40;99.90;;;;;;5055753;28;20565;-89
2023/08/27 03:14:53;;;;;;;5.87;3.37;;;16.50;99.90;;;;;;5056416;28;20676;-90
2023/08/27 03:17:20;;;;;;;5.73;3.27;;;16.70;99.90;;;;;;5057492;28;20473;-89
2023/08/27 03:19:46;;;;;;;5.57;3.73;;;16.60;99.90;;;;;;5056371;28;20180;-89
2023/08/27 03:22:11;;;;;;;5.43;3.03;;;16.70;99.90;;;;;;5055819;28;20680;-88
2023/08/27 03:24:38;;;;;;;6.43;3.90;;;16.80;99.70;;;;;;5055750;28;20187;-90
2023/08/27 03:27:05;;;;;;;5.97;3.67;;;16.90;97.70;;;;;;5056228;28;20669;-89
2023/08/27 03:29:31;;;;;;;7.07;3.67;;;17.00;95.80;;;;;;5055940;28;20177;-91
2023/08/27 03:31:57;;;;;;;6.27;4.07;;;16.90;95.70;;;;;;5055562;28;20647;-87
2023/08/27 03:34:22;;;;;;;7.33;3.70;;;16.80;96.20;;;;;;5054854;28;20197;-89
2023/08/27 03:36:48;;;;;;;4.67;3.80;;;16.80;96.10;;;;;;5059383;28;20202;-87
2023/08/27 03:39:14;;;;;;;4.30;3.57;;;16.70;97.50;;;;;;5062287;28;20208;-88
2023/08/27 03:41:39;;;;;;;6.77;4.07;;;16.60;99.10;;;;;;5062181;28;20169;-88
2023/08/27 03:44:05;;;;;;;6.37;4.17;;;16.60;99.90;;;;;;5066622;28;20204;-88
2023/08/27 03:46:31;;;;;;;5.93;3.70;;;16.50;99.90;;;;;;5077503;28;20180;-89
2023/08/27 03:49:01;;;;;;;7.60;4.33;;;16.40;99.90;;;;;;5078035;28;20193;-87
2023/08/27 03:51:30;;;;;;;6.47;3.97;;;16.30;99.90;;;;;;5066588;28;20183;-87
2023/08/27 03:53:57;;;;;;;6.77;4.20;;;16.40;99.90;;;;;;5055622;28;20185;-88
2023/08/27 03:56:23;;;;;;;8.47;4.70;;;16.40;99.90;;;;;;5054755;28;20222;-89
2023/08/27 03:58:50;;;;;;;5.53;4.03;;;16.30;99.90;;;;;;5055124;28;20256;-87
2023/08/27 04:01:17;;;;;;;7.97;4.50;;;16.20;99.90;;;;;;5055717;28;20619;-87
2023/08/27 04:03:43;;;;;;;7.03;4.13;;;16.20;99.90;;;;;;5054932;28;20605;-88
2023/08/27 04:06:10;;;;;;;6.77;3.60;;;16.20;99.90;;;;;;5055619;28;20173;-90
2023/08/27 04:08:36;;;;;;;7.70;4.33;;;16.20;99.90;;;;;;5056083;28;20176;-89
2023/08/27 04:11:02;;;;;;;10.53;4.30;;;16.30;99.90;;;;;;5054392;28;20271;-89
2023/08/27 04:13:28;;;;;;;5.63;3.67;;;16.20;99.90;;;;;;5054418;28;20191;-90
2023/08/27 04:16:07;;;;;;;6.63;3.77;;;16.20;99.90;;;;;;5054978;28;20216;-88
2023/08/27 04:18:33;;;;;;;5.33;3.90;;;16.10;99.90;;;;;;5054416;28;20171;-89
2023/08/27 04:20:59;;;;;;;7.23;4.17;;;16.10;99.90;;;;;;5054748;28;20180;-89
2023/08/27 04:23:25;;;;;;;7.03;3.80;;;16.10;99.90;;;;;;5054599;28;20183;-89
2023/08/27 04:25:52;;;;;;;4.97;3.80;;;16.10;99.90;;;;;;5058241;28;20274;-89
2023/08/27 04:28:17;;;;;;;5.47;3.97;;;16.20;99.90;;;;;;5058795;28;20261;-90
2023/08/27 04:30:46;;;;;;;10.20;4.17;;;16.20;99.90;;;;;;5054582;28;20552;-90
2023/08/27 04:33:12;;;;;;;5.57;3.73;;;16.10;99.90;;;;;;5054509;28;20307;-90
2023/08/27 04:35:38;;;;;;;7.03;4.17;;;16.10;99.90;;;;;;5054766;28;20683;-90
2023/08/27 04:38:06;;;;;;;8.13;4.10;;;16.10;99.90;;;;;;5055221;28;20174;-90
2023/08/27 04:40:32;;;;;;;6.53;4.00;;;16.10;99.90;;;;;;5059146;28;20168;-87
2023/08/27 04:42:59;;;;;;;6.10;3.77;;;16.10;99.90;;;;;;5068198;28;20700;-87
2023/08/27 04:45:24;;;;;;;6.80;3.87;;;16.00;99.90;;;;;;5056230;28;20271;-90
2023/08/27 04:47:50;;;;;;;5.70;3.57;;;16.00;99.90;;;;;;5055187;28;20176;-88
2023/08/27 04:50:16;;;;;;;5.73;4.07;;;16.00;99.90;;;;;;5054930;28;20192;-89
2023/08/27 04:52:42;;;;;;;5.37;3.50;;;16.00;99.90;;;;;;5053897;28;20207;-89
2023/08/27 04:55:09;;;;;;;4.70;3.50;;;16.00;99.90;;;;;;5053926;28;20266;-89
2023/08/27 04:57:36;;;;;;;6.67;4.10;;;15.90;99.90;;;;;;5054113;28;20270;-91
2023/08/27 05:00:07;;;;;;;7.07;3.80;;;15.90;99.90;;;;;;5054252;28;20180;-89
2023/08/27 05:02:34;;;;;;;7.23;3.87;;;15.90;99.90;;;;;;5054733;28;20205;-90
2023/08/27 05:05:00;;;;;;;5.67;3.40;;;15.90;99.90;;;;;;5059221;28;20265;-88
2023/08/27 05:07:26;;;;;;;4.60;3.70;;;15.90;99.90;;;;;;5067670;28;20170;-89
2023/08/27 05:09:51;;;;;;;5.80;3.80;;;15.80;99.90;;;;;;5057054;28;20181;-90
2023/08/27 05:12:17;;;;;;;6.53;3.70;;;15.80;99.90;;;;;;5061216;28;20663;-90
2023/08/27 05:14:43;;;;;;;7.30;4.17;;;15.70;99.90;;;;;;5057099;28;20244;-89
2023/08/27 05:17:09;;;;;;;6.70;3.73;;;15.80;99.90;;;;;;5057324;28;20216;-91
2023/08/27 05:19:35;;;;;;;7.63;3.77;;;15.80;99.90;;;;;;5062835;28;20214;-89
2023/08/27 05:22:02;;;;;;;7.50;4.00;;;15.80;99.90;;;;;;5069966;28;20165;-88
2023/08/27 05:24:27;;;;;;;6.97;3.90;;;15.70;99.90;;;;;;5071749;28;20180;-88
2023/08/27 05:26:53;;;;;;;8.27;4.40;;;15.70;99.90;;;;;;5077550;28;20189;-89
2023/08/27 05:29:19;;;;;;;7.97;4.33;;;15.80;99.90;;;;;;5075466;28;20174;-88
2023/08/27 05:31:45;;;;;;;5.67;3.97;;;15.80;99.90;;;;;;5078623;28;20167;-88
2023/08/27 05:34:10;;;;;;;6.03;3.87;;;15.80;99.90;;;;;;5079859;28;20258;-89
2023/08/27 05:36:36;;;;;;;6.77;4.27;;;15.80;99.90;;;;;;5073623;28;20239;-88
2023/08/27 05:39:05;;;;;;;5.27;4.00;;;15.70;99.90;;;;;;5080874;28;20186;-87
2023/08/27 05:41:31;;;;;;;7.37;4.00;;;15.80;99.90;;;;;;5077137;28;20190;-91
2023/08/27 05:43:57;;;;;;;5.40;4.17;;;15.70;99.90;;;;;;5071613;28;20179;-88
2023/08/27 05:46:22;;;;;;;7.23;3.37;;;15.70;99.90;;;;;;5071737;28;20179;-87
2023/08/27 05:48:48;;;;;;;7.90;4.23;;;15.80;99.90;;;;;;5065072;28;20191;-87
2023/08/27 05:51:14;;;;;;;6.00;4.10;;;15.80;99.90;;;;;;5066310;28;20264;-87
2023/08/27 05:53:40;;;;;;;6.83;3.53;;;15.80;99.90;;;;;;5067096;28;20185;-87
2023/08/27 05:56:05;;;;;;;6.93;3.57;;;15.90;99.90;;;;;;5066784;28;20223;-87
2023/08/27 05:58:31;;;;;;;6.60;3.40;;;15.90;99.90;;;;;;5069713;28;20240;-86
2023/08/27 06:00:58;;;;;;;5.40;3.83;;;15.90;99.90;;;;;;5074523;28;20181;-87
2023/08/27 06:03:25;;;;;;;6.33;3.37;;;16.00;99.90;;;;;;5075270;28;20622;-86
2023/08/27 06:05:50;;;;;;;5.30;3.30;;;16.10;99.90;;;;;;5072597;28;20183;-87
2023/08/27 06:08:16;;;;;;;4.90;3.37;;;16.00;99.90;;;;;;5068573;28;20222;-86
2023/08/27 06:10:42;;;;;;;6.53;4.17;;;16.00;99.90;;;;;;5072494;28;20177;-85
2023/08/27 06:13:07;;;;;;;5.63;3.30;;;15.90;99.90;;;;;;5072898;28;20223;-87
2023/08/27 06:15:34;;;;;;;7.13;3.63;;;15.80;99.90;;;;;;5075994;28;20212;-86
2023/08/27 06:18:03;;;;;;;6.73;3.50;;;15.80;99.90;;;;;;5074277;28;20173;-87
2023/08/27 06:20:33;;;;;;;7.13;3.53;;;16.00;99.90;;;;;;5067010;28;20263;-86
2023/08/27 06:22:59;;;;;;;6.47;3.13;;;16.00;99.90;;;;;;5058457;28;20183;-89
2023/08/27 06:25:25;;;;;;;6.70;3.93;;;16.10;99.90;;;;;;5057666;28;20182;-87
2023/08/27 06:27:54;;;;;;;6.13;3.80;;;16.10;99.90;;;;;;5065164;28;20177;-88
2023/08/27 06:30:20;;;;;;;7.13;3.83;;;16.20;99.90;;;;;;5077401;28;20179;-89
2023/08/27 06:32:45;;;;;;;6.77;3.80;;;16.40;99.50;;;;;;5068841;28;20310;-89
2023/08/27 06:35:11;;;;;;;7.43;3.93;;;16.30;99.90;;;;;;5063192;28;20216;-88
2023/08/27 06:37:37;;;;;;;7.33;3.50;;;16.30;99.90;;;;;;5070656;28;20238;-89
2023/08/27 06:40:05;;;;;;;4.97;3.93;;;16.30;99.90;;;;;;5060785;28;20171;-89
2023/08/27 06:42:37;;;;;;;6.70;3.47;;;16.50;99.90;;;;;;5058583;28;20173;-88
2023/08/27 06:45:04;;;;;;;6.97;3.83;;;16.40;99.60;;;;;;5063751;28;20270;-89
2023/08/27 06:47:34;;;;;;;6.87;3.63;;;16.50;97.60;;;;;;5072196;28;20229;-88
2023/08/27 06:50:00;;;;;;;4.80;3.70;;;16.70;95.30;;;;;;5073544;28;20362;-87
2023/08/27 06:52:29;;;;;;;6.97;3.50;;;16.80;92.60;;;;;;5058222;28;20164;-85
2023/08/27 06:54:55;;;;;;;5.63;3.17;;;16.80;92.30;;;;;;5074214;28;20308;-90
2023/08/27 06:57:21;;;;;;;6.83;3.60;;;16.70;92.70;;;;;;5066412;28;20258;-90
2023/08/27 06:59:48;;;;;;;8.20;3.13;;;16.80;92.40;;;;;;5066022;28;20636;-89
2023/08/27 07:02:15;;;;;;;4.70;2.80;;;16.80;92.20;;;;;;5064685;28;20166;-91
2023/08/27 07:04:40;;;;;;;6.00;3.00;;;16.80;91.70;;;;;;5067758;28;20191;-89
2023/08/27 07:07:09;;;;;;;7.27;3.00;;;16.80;91.70;;;;;;5073450;28;20174;-91
2023/08/27 07:09:35;;;;;;;6.67;3.40;;;16.80;91.60;;;;;;5060920;28;20184;-88
2023/08/27 07:12:01;;;;;;;7.03;2.63;;;16.70;90.70;;;;;;5095639;28;20181;-89
2023/08/27 07:14:27;;;;;;;4.43;2.90;;;16.80;90.50;;;;;;5063317;28;20216;-87
2023/08/27 07:16:53;;;;;;;5.37;2.83;;;16.80;87.50;;;;;;5062593;28;20180;-89
2023/08/27 07:19:18;;;;;;;5.63;3.40;;;16.80;89.30;;;;;;5061863;28;20175;-88
2023/08/27 07:21:44;;;;;;;4.73;2.80;;;16.90;83.50;;;;;;5071704;28;20198;-88
2023/08/27 07:24:13;;;;;;;8.00;3.20;;;16.90;83.50;;;;;;5073836;28;20184;-88
2023/08/27 07:26:39;;;;;;;5.10;2.97;;;16.90;89.30;;;;;;5076885;28;20149;-89
2023/08/27 07:29:05;;;;;;;5.03;3.20;;;17.00;90.50;;;;;;5078950;28;20198;-89
2023/08/27 07:31:32;;;;;;;6.50;3.40;;;17.00;87.80;;;;;;5051742;28;20190;-89
2023/08/27 07:33:59;;;;;;;5.03;2.90;;;17.10;85.00;;;;;;5063353;28;20181;-89
2023/08/27 07:36:25;;;;;;;6.33;2.87;;;17.10;85.30;;;;;;5058888;28;20275;-89
2023/08/27 07:38:52;;;;;;;5.97;2.80;;;17.30;79.60;;;;;;5057285;28;20201;-87
2023/08/27 07:41:17;;;;;;;11.27;2.93;;;17.40;76.50;;;;;;5056439;28;20698;-88
2023/08/27 07:43:44;;;;;;;6.03;2.97;;;17.40;74.90;;;;;;5056879;28;20204;-89
2023/08/27 07:46:12;;;;;;;5.67;2.77;;;17.50;73.50;;;;;;5056843;28;20176;-89
2023/08/27 07:48:39;;;;;;;7.33;2.60;;;17.60;71.20;;;;;;5056118;28;20179;-89
2023/08/27 07:51:04;;;;;;;6.70;3.10;;;17.80;61.20;;;;;;5058501;28;20214;-89
2023/08/27 07:53:30;;;;;;;6.87;3.00;;;17.80;61.90;;;;;;5065409;28;20173;-87
2023/08/27 07:55:56;;;;;;;5.27;2.60;;;17.90;65.70;;;;;;5066990;28;20223;-88
2023/08/27 07:58:24;;;;;;;6.33;2.47;;;17.90;64.40;;;;;;5057259;28;20231;-88
2023/08/27 08:01:02;;;;;;;4.83;2.40;;;18.00;60.80;;;;;;5055832;28;20261;-90
2023/08/27 08:03:30;;;;;;;6.97;2.70;;;18.20;56.30;;;;;;5054771;28;20176;-90
2023/08/27 08:05:59;;;;;;;5.87;2.80;;;18.20;53.90;;;;;;5055678;28;20181;-88
2023/08/27 08:08:25;;;;;;;7.20;2.40;;;18.30;48.90;;;;;;5055958;28;20169;-88
2023/08/27 08:10:56;;;;;;;7.43;2.83;;;18.40;44.90;;;;;;5056042;28;20643;-88
2023/08/27 08:13:23;;;;;;;6.97;2.80;;;18.20;51.00;;;;;;5054981;28;20230;-89
2023/08/27 08:15:50;;;;;;;10.03;3.50;;;18.30;48.90;;;;;;5056994;28;20209;-89
2023/08/27 08:18:16;;;;;;;6.57;2.67;;;18.30;47.60;;;;;;5057681;28;20172;-89
2023/08/27 08:20:44;;;;;;;6.43;2.53;;;18.20;40.00;;;;;;5057094;28;20175;-89
2023/08/27 08:23:11;;;;;;;4.40;2.20;;;18.10;43.50;;;;;;5056691;28;20265;-89
2023/08/27 08:25:37;;;;;;;7.07;2.37;;;18.00;46.90;;;;;;5059222;28;20184;-88
2023/08/27 08:28:06;;;;;;;7.77;2.50;;;18.30;46.80;;;;;;5066187;28;20176;-89
2023/08/27 08:30:32;;;;;;;8.63;3.10;;;18.50;42.90;;;;;;5056981;28;20199;-90
2023/08/27 08:32:57;;;;;;;5.20;2.20;;;18.60;33.70;;;;;;5054916;28;20220;-89
2023/08/27 08:35:24;;;;;;;5.13;2.10;;;18.50;30.20;;;;;;5054835;28;20216;-90
2023/08/27 08:37:51;;;;;;;5.00;1.97;;;18.30;28.70;;;;;;5055086;28;20197;-92
2023/08/27 08:40:18;;;;;;;6.43;2.00;;;18.20;32.80;;;;;;5055531;28;20177;-89
2023/08/27 08:42:51;;;;;;;5.67;2.57;;;18.30;31.70;;;;;;5057158;28;20155;-90
2023/08/27 08:45:36;;;;;;;5.83;2.50;;;18.30;34.20;;;;;;5058027;28;20170;-90
2023/08/27 08:48:05;;;;;;;4.00;2.40;;;18.40;32.50;;;;;;5055100;28;20171;-91
2023/08/27 08:50:35;;;;;;;4.43;2.00;;;18.30;25.80;;;;;;5059766;28;20652;-86
2023/08/27 08:53:13;;;;;;;5.13;2.17;;;18.00;24.70;;;;;;5067972;28;20238;-89
2023/08/27 08:55:43;;;;;;;4.03;2.20;;;18.20;27.60;;;;;;5060163;28;20309;-91
2023/08/27 08:58:11;;;;;;;3.90;1.80;;;18.30;25.70;;;;;;5055391;28;20200;-90
2023/08/27 09:00:36;;;;;;;4.13;2.00;;;18.40;23.00;;;;;;5054250;28;20761;-89
2023/08/27 09:03:03;;;;;;;5.13;2.10;;;18.40;21.40;;;;;;5054788;28;20179;-88
2023/08/27 09:05:34;;;;;;;3.53;2.03;;;18.50;14.50;;;;;;5054470;28;20184;-90
2023/08/27 09:08:00;;;;;;;6.87;1.90;;;18.50;13.30;;;;;;5054329;28;20623;-90
2023/08/27 09:10:26;;;;;;;4.27;2.10;;;18.60;12.30;;;;;;5053935;28;20173;-91
2023/08/27 09:13:01;;;;;;;4.20;1.67;;;18.80;5.60;;;;;;5054898;28;20202;-89
2023/08/27 09:15:26;;;;;;;3.13;1.53;;;18.60;1.00;;;;;;5059047;28;20216;-88
2023/08/27 09:17:52;;;;;;;5.27;1.83;;;18.70;1.20;;;;;;5054795;28;20257;-89
2023/08/27 09:20:18;;;;;;;3.50;1.60;;;18.70;1.00;;;;;;5054737;28;20176;-89
2023/08/27 09:22:45;;;;;;;6.10;2.10;;;18.60;1.00;;;;;;5056907;28;20170;-89
2023/08/27 09:25:37;;;;;;;2.80;1.60;;;18.50;1.00;;;;;;5072844;28;20207;-89
2023/08/27 09:28:03;;;;;;;3.10;1.60;;;18.50;2.50;;;;;;5045346;28;20181;-89
2023/08/27 09:30:31;;;;;;;5.17;1.67;;;18.60;2.10;;;;;;5072273;28;20246;-89
2023/08/27 09:32:57;;;;;;;4.13;1.60;;;18.80;6.60;;;;;;5058062;28;20191;-90
2023/08/27 09:35:34;;;;;;;3.23;1.60;;;18.90;1.00;;;;;;5056193;28;20717;-88
2023/08/27 09:38:00;;;;;;;3.83;1.70;;;19.00;1.00;;;;;;5055882;28;20178;-89
2023/08/27 09:40:26;;;;;;;2.97;1.33;;;18.90;1.00;;;;;;5057163;28;20176;-89
2023/08/27 09:43:05;;;;;;;3.40;1.37;;;19.00;1.00;;;;;;5057515;28;20273;-88
2023/08/27 09:45:32;;;;;;;3.13;1.47;;;19.10;1.00;;;;;;5055940;28;20529;-88
2023/08/27 09:47:58;;;;;;;3.00;1.20;;;19.30;1.00;;;;;;5056707;28;20343;-89
2023/08/27 09:50:24;;;;;;;3.93;1.70;;;19.30;1.00;;;;;;5059159;28;20252;-90
2023/08/27 09:52:50;;;;;;;3.37;1.47;;;19.10;1.00;;;;;;5043184;28;20252;-91
2023/08/27 09:55:16;;;;;;;2.53;1.40;;;19.20;1.00;;;;;;5063594;28;20311;-89
2023/08/27 09:57:53;;;;;;;4.63;1.50;;;19.50;1.00;;;;;;5065892;28;20180;-88
2023/08/27 10:00:21;;;;;;;6.70;1.67;;;19.60;1.00;;;;;;5057454;28;20200;-89
2023/08/27 10:02:53;;;;;;;3.63;1.70;;;19.70;1.00;;;;;;5057109;28;20247;-89
2023/08/27 10:05:28;;;;;;;4.17;1.47;;;19.90;1.00;;;;;;5064003;28;20182;-88
2023/08/27 10:08:05;;;;;;;3.63;1.30;;;20.00;1.00;;;;;;5068068;28;20196;-89
2023/08/27 10:10:34;;;;;;;2.90;1.60;;;20.10;1.00;;;;;;5061552;28;20226;-86
2023/08/27 10:13:01;;;;;;;5.20;2.03;;;20.10;1.00;;;;;;5076812;28;20244;-88
2023/08/27 10:15:27;;;;;;;4.43;1.90;;;20.00;1.00;;;;;;5074859;28;20314;-87
2023/08/27 10:17:56;;;;;;;5.00;2.00;;;19.70;1.00;;;;;;5062824;28;20172;-89
2023/08/27 10:20:25;;;;;;;2.80;2.17;;;19.50;1.00;;;;;;5065121;28;20567;-88
2023/08/27 10:23:43;;;;;;;4.37;2.50;;;19.50;1.00;;;;;;5060501;28;20169;-88
2023/08/27 10:26:10;;;;;;;5.20;3.10;;;19.80;1.00;;;;;;5063643;28;20172;-87
2023/08/27 10:28:38;;;;;;;4.33;2.60;;;20.10;1.00;;;;;;5065687;28;20172;-89
2023/08/27 10:31:05;;;;;;;3.63;2.93;;;20.10;1.00;;;;;;5074783;28;20177;-88
2023/08/27 10:33:36;;;;;;;5.00;2.60;;;19.90;1.00;;;;;;5068634;28;20634;-89
2023/08/27 10:36:17;;;;;;;4.10;2.73;;;19.80;1.00;;;;;;5071077;28;20203;-87
2023/08/27 10:38:45;;;;;;;3.87;2.60;;;19.70;1.00;;;;;;5071970;28;20169;-91
2023/08/27 10:41:36;;;;;;;3.17;2.50;;;19.70;1.00;;;;;;5064832;28;20590;-90
2023/08/27 10:44:22;;;;;;;4.93;2.90;;;19.80;1.00;;;;;;5079667;28;20240;-87
2023/08/27 10:49:17;;;;;;;4.10;2.30;;;19.80;1.00;;;;;;5058921;28;20220;-89
2023/08/27 10:51:42;;;;;;;5.10;2.47;;;19.90;1.00;;;;;;5056362;28;20178;-89
2023/08/27 10:54:08;;;;;;;5.07;2.50;;;19.80;1.00;;;;;;5045959;28;20169;-90
2023/08/27 10:59:37;;;;;;;2.80;2.10;;;19.80;1.00;;;;;;5019019;28;20198;-90
2023/08/27 11:02:11;;;;;;;3.17;2.13;;;19.60;1.00;;;;;;5019521;28;20201;-88
2023/08/27 11:04:47;;;;;;;3.90;2.30;;;19.70;1.00;;;;;;5021107;28;20170;-87
2023/08/27 11:07:15;;;;;;;4.93;2.50;;;19.80;1.00;;;;;;5072662;22;20226;-87
2023/08/27 11:09:57;;;;;;;4.00;2.00;;;19.90;1.00;;;;;;5023595;28;20184;-88
2023/08/27 11:12:32;;;;;;;5.73;2.27;;;19.90;1.00;;;;;;5022425;28;20186;-87
2023/08/27 11:15:15;;;;;;;5.87;2.23;;;19.90;1.00;;;;;;5021901;28;20232;-87
2023/08/27 11:17:42;;;;;;;3.73;2.47;;;20.10;1.00;;;;;;5022357;28;20266;-91
2023/08/27 11:20:25;;;;;;;3.33;2.50;;;20.10;1.00;;;;;;5022217;28;20205;-89
2023/08/27 11:23:02;;;;;;;4.47;2.17;;;20.00;1.00;;;;;;5020929;28;20257;-90
2023/08/27 11:25:29;;;;;;;3.43;2.17;;;19.80;1.00;;;;;;5019089;28;20174;-88
2023/08/27 11:27:58;;;;;;;2.53;2.10;;;19.70;1.00;;;;;;5018952;28;20177;-89
2023/08/27 11:30:25;;;;;;;3.27;2.30;;;19.70;1.00;;;;;;5021095;28;20168;-88
2023/08/27 11:32:52;;;;;;;3.67;2.10;;;19.60;1.00;;;;;;5020102;28;20161;-87
2023/08/27 11:35:23;;;;;;;3.20;1.90;;;19.60;1.00;;;;;;5019351;28;20227;-88
2023/08/27 11:37:49;;;;;;;3.60;1.93;;;19.60;1.00;;;;;;5020212;28;20178;-87
2023/08/27 11:40:16;;;;;;;2.33;1.50;;;19.50;1.00;;;;;;5009467;28;20195;-87
2023/08/27 11:42:53;;;;;;;2.53;1.70;;;19.30;1.00;;;;;;5006712;28;20178;-90
2023/08/27 11:45:29;;;;;;;3.07;2.07;;;19.00;1.00;;;;;;5002843;28;20755;-90
2023/08/27 11:47:55;;;;;;;4.13;1.80;;;18.70;11.30;;;;;;5001304;28;20191;-87
2023/08/27 11:50:21;;;;;;;2.30;0.90;;;17.90;1.20;;;;;;5018300;28;20190;-88
2023/08/27 11:52:49;;;;;;;2.83;1.20;;;17.00;1.40;;;;;;5011577;28;20170;-87
2023/08/27 11:55:20;;;;;;;3.13;2.17;;;16.90;15.90;;;;;;5017781;28;20180;-86
2023/08/27 11:57:46;;;;;;;3.37;2.07;;;17.10;24.70;;;;;;5009131;28;20261;-90
2023/08/27 12:00:13;;;;;;;4.47;2.63;;;17.30;38.50;;;;;;5004362;28;20202;-90
2023/08/27 12:02:39;;;;;;;3.70;2.30;;;17.40;49.60;;;;;;5004108;28;20182;-87
2023/08/27 12:05:09;;;;;;;5.17;3.00;;;17.60;49.90;;;;;;5007344;28;20189;-87
2023/08/27 12:07:37;;;;;;;6.03;3.20;;;17.70;52.60;;;;;;5005378;28;20237;-88
2023/08/27 12:10:10;;;;;;;5.40;2.77;;;17.80;49.70;;;;;;5002515;28;20245;-90
2023/08/27 12:12:39;;;;;;;3.27;2.30;;;18.00;53.70;;;;;;5001604;28;20548;-88
2023/08/27 12:15:07;;;;;;;6.27;2.80;;;18.00;45.10;;;;;;5003804;28;20219;-88
2023/08/27 12:17:36;;;;;;;5.17;2.50;;;18.10;49.60;;;;;;5003628;28;20271;-88
2023/08/27 12:20:05;;;;;;;5.63;2.20;;;18.30;47.30;;;;;;5002476;28;20175;-87
2023/08/27 12:22:44;;;;;;;3.40;2.20;;;18.30;32.20;;;;;;5002035;28;20166;-89
2023/08/27 12:25:11;;;;;;;3.70;2.33;;;18.20;29.00;;;;;;4984037;28;20178;-89
2023/08/27 12:27:37;;;;;;;4.73;1.67;;;18.40;38.20;;;;;;5001221;28;20170;-89
2023/08/27 12:30:06;;;;;;;3.70;1.90;;;18.50;24.90;;;;;;5003722;28;20196;-89
2023/08/27 12:32:34;;;;;;;4.10;1.73;;;18.60;19.80;;;;;;5005635;28;20175;-90
2023/08/27 12:35:00;;;;;;;3.17;1.70;;;18.70;13.60;;;;;;5004867;28;20203;-88
2023/08/27 12:37:26;;;;;;;3.47;1.80;;;18.80;9.20;;;;;;5003334;28;20628;-88
2023/08/27 12:39:53;;;;;;;3.47;2.30;;;18.90;15.20;;;;;;5012252;28;20171;-88
2023/08/27 12:42:22;;;;;;;2.90;1.77;;;19.20;17.50;;;;;;5010092;28;20186;-89
2023/08/27 12:44:48;;;;;;;3.33;1.90;;;19.40;5.50;;;;;;5000181;28;20694;-91
2023/08/27 12:47:13;;;;;;;4.60;1.67;;;19.70;13.30;;;;;;5001495;28;20280;-90
2023/08/27 12:49:40;;;;;;;5.87;2.10;;;19.90;1.00;;;;;;5000438;28;20174;-90
2023/08/27 12:52:06;;;;;;;4.10;1.93;;;19.90;1.00;;;;;;5002234;28;20249;-91
2023/08/27 12:54:35;;;;;;;2.03;1.33;;;19.30;12.00;;;;;;5002439;28;20236;-89
2023/08/27 12:57:01;;;;;;;1.90;1.37;;;18.80;4.10;;;;;;5000455;28;20180;-89
2023/08/27 12:59:29;;;;;;;2.33;1.30;;;18.60;3.20;;;;;;5001157;28;20176;-90